Time;durP1;ratioP1;P1;durP2;ratioP2;P2;SDS_P1;SDS_P2;PMS_P1;PMS_P2;Temp;Humidity;BMP_temperature;BMP_pressure;BME280_temperature;BME280_humidity;BME280_pressure;Samples;Min_cycle;Max_cycle;Signal;HPM_P1;HPM_P2
2022/06/10 00:00:37;;;;;;;28.63;27.53;;;21.70;99.90;;;;;;5075246;28;20530;-68
2022/06/10 00:03:05;;;;;;;27.60;26.67;;;21.70;99.90;;;;;;5075375;28;20501;-68
2022/06/10 00:05:36;;;;;;;30.30;29.23;;;21.70;99.90;;;;;;5087165;28;20454;-68
2022/06/10 00:08:04;;;;;;;27.43;26.50;;;21.60;99.90;;;;;;5095456;28;21084;-68
2022/06/10 00:10:31;;;;;;;28.87;27.77;;;21.60;99.90;;;;;;5095336;28;20975;-68
2022/06/10 00:12:58;;;;;;;27.57;26.57;;;21.60;99.90;;;;;;5095325;28;20998;-68
2022/06/10 00:15:25;;;;;;;27.17;26.27;;;21.60;99.90;;;;;;5084289;28;20471;-68
2022/06/10 00:17:54;;;;;;;28.27;27.20;;;21.60;99.90;;;;;;5074900;28;21005;-68
2022/06/10 00:20:23;;;;;;;27.70;26.80;;;21.60;99.90;;;;;;5074886;28;20447;-68
2022/06/10 00:22:50;;;;;;;30.17;28.93;;;21.60;99.90;;;;;;5074979;28;20474;-68
2022/06/10 00:25:18;;;;;;;26.63;25.63;;;21.60;99.90;;;;;;5084078;28;20508;-68
2022/06/10 00:27:46;;;;;;;27.07;25.70;;;21.60;99.90;;;;;;5095136;28;20469;-68
2022/06/10 00:30:14;;;;;;;28.00;27.00;;;21.60;99.90;;;;;;5095060;28;20450;-68
2022/06/10 00:32:40;;;;;;;28.20;27.10;;;21.60;99.90;;;;;;5095044;28;20503;-68
2022/06/10 00:35:10;;;;;;;27.63;26.33;;;21.60;99.90;;;;;;5087022;28;20535;-68
2022/06/10 00:37:37;;;;;;;28.23;27.23;;;21.60;99.90;;;;;;5074775;28;20509;-68
2022/06/10 00:40:06;;;;;;;27.93;27.03;;;21.60;99.90;;;;;;5074511;28;20443;-68
2022/06/10 00:42:35;;;;;;;26.83;25.93;;;21.60;99.90;;;;;;5074781;28;20467;-68
2022/06/10 00:45:04;;;;;;;28.80;27.67;;;21.50;99.90;;;;;;5081065;28;20473;-68
2022/06/10 00:47:35;;;;;;;29.20;28.20;;;21.60;99.90;;;;;;5093125;28;20490;-68
2022/06/10 00:50:19;;;;;;;28.50;27.50;;;21.50;99.90;;;;;;5094916;28;20446;-68
2022/06/10 00:52:51;;;;;;;28.10;26.80;;;21.50;99.90;;;;;;5094765;28;20438;-68
2022/06/10 00:55:28;;;;;;;28.83;27.73;;;21.50;99.90;;;;;;5085942;28;20450;-68
2022/06/10 00:57:59;;;;;;;29.17;28.13;;;21.50;99.90;;;;;;5082229;28;20458;-68
2022/06/10 01:00:27;;;;;;;28.20;27.10;;;21.50;99.90;;;;;;5094666;28;20477;-68
2022/06/10 01:02:54;;;;;;;26.50;25.60;;;21.50;99.90;;;;;;5094780;28;20442;-68
2022/06/10 01:05:25;;;;;;;29.27;28.17;;;21.50;99.90;;;;;;5085500;28;20497;-68
2022/06/10 01:07:55;;;;;;;28.00;27.00;;;21.50;99.90;;;;;;5074208;28;20491;-68
2022/06/10 01:10:23;;;;;;;29.07;28.00;;;21.50;99.90;;;;;;5074004;28;20435;-68
2022/06/10 01:13:10;;;;;;;27.53;26.53;;;21.50;99.90;;;;;;5073955;28;20568;-68
2022/06/10 01:15:42;;;;;;;27.83;26.93;;;21.50;99.90;;;;;;5084588;28;20486;-68
2022/06/10 01:18:44;;;;;;;26.97;25.97;;;21.50;99.90;;;;;;5094003;28;20552;-68
2022/06/10 01:21:31;;;;;;;28.70;27.60;;;21.50;99.90;;;;;;5040735;28;20544;-68
2022/06/10 01:24:40;;;;;;;27.80;26.80;;;21.50;99.90;;;;;;5094108;28;20470;-68
2022/06/10 01:27:50;;;;;;;28.47;27.47;;;21.40;99.90;;;;;;5073732;28;21045;-68
2022/06/10 01:30:26;;;;;;;28.80;27.67;;;21.40;99.90;;;;;;5073514;28;20534;-68
2022/06/10 01:33:07;;;;;;;27.20;26.00;;;21.40;99.90;;;;;;5074725;28;20484;-68
2022/06/10 01:35:39;;;;;;;28.83;27.73;;;21.50;99.90;;;;;;5073656;28;20439;-68
2022/06/10 01:38:14;;;;;;;27.43;26.43;;;21.50;99.90;;;;;;5073489;28;20463;-68
2022/06/10 01:40:48;;;;;;;27.27;26.27;;;21.50;99.90;;;;;;5073377;28;20865;-68
2022/06/10 01:43:22;;;;;;;27.50;26.50;;;21.50;99.90;;;;;;5079302;28;20496;-68
2022/06/10 01:45:53;;;;;;;27.50;26.40;;;21.50;99.90;;;;;;5093761;28;20518;-68
2022/06/10 01:48:30;;;;;;;27.23;26.23;;;21.40;99.90;;;;;;5093587;28;20490;-68
2022/06/10 01:51:04;;;;;;;29.17;28.07;;;21.40;99.90;;;;;;5093269;28;20513;-68
2022/06/10 01:53:35;;;;;;;27.47;26.53;;;21.40;99.90;;;;;;5085801;28;20479;-68
2022/06/10 01:56:07;;;;;;;28.20;27.20;;;21.40;99.90;;;;;;5073200;28;20939;-68
2022/06/10 01:58:40;;;;;;;29.20;28.20;;;21.40;99.90;;;;;;5073151;28;20553;-68
2022/06/10 02:01:12;;;;;;;28.90;27.90;;;21.40;99.90;;;;;;5072925;28;20962;-68
2022/06/10 02:03:46;;;;;;;28.80;27.70;;;21.40;99.90;;;;;;5081568;28;20442;-68
2022/06/10 02:06:18;;;;;;;28.97;27.97;;;21.40;99.90;;;;;;5077659;28;20509;-68
2022/06/10 02:08:50;;;;;;;30.53;29.43;;;21.40;99.90;;;;;;5083660;28;20492;-68
2022/06/10 02:11:20;;;;;;;28.83;27.73;;;21.30;99.90;;;;;;5092972;28;20478;-67
2022/06/10 02:13:51;;;;;;;28.90;27.80;;;21.30;99.90;;;;;;5083326;28;20533;-67
2022/06/10 02:16:23;;;;;;;28.30;27.30;;;21.30;99.90;;;;;;5072980;28;20953;-68
2022/06/10 02:18:55;;;;;;;28.80;27.60;;;21.30;99.90;;;;;;5072591;28;20511;-68
2022/06/10 02:21:27;;;;;;;27.90;26.90;;;21.30;99.90;;;;;;5072137;28;20451;-68
2022/06/10 02:23:59;;;;;;;28.00;27.00;;;21.30;99.90;;;;;;5082671;28;20531;-68
2022/06/10 02:26:31;;;;;;;29.60;28.50;;;21.30;99.90;;;;;;5093084;28;20530;-68
2022/06/10 02:29:00;;;;;;;27.77;26.77;;;21.30;99.90;;;;;;5092764;28;20473;-68
2022/06/10 02:31:32;;;;;;;29.93;28.53;;;21.30;99.80;;;;;;5092546;28;20521;-68
2022/06/10 02:34:01;;;;;;;29.93;28.93;;;21.30;99.60;;;;;;5081751;28;20448;-68
2022/06/10 02:36:38;;;;;;;29.37;28.17;;;21.30;99.60;;;;;;5072489;28;20904;-67
2022/06/10 02:39:24;;;;;;;27.00;26.03;;;21.30;99.70;;;;;;5072672;28;20435;-68
2022/06/10 02:41:58;;;;;;;32.20;31.00;;;21.30;99.70;;;;;;5072631;28;20431;-68
2022/06/10 02:44:31;;;;;;;30.83;29.70;;;21.30;99.60;;;;;;5086207;28;20521;-68
2022/06/10 02:47:06;;;;;;;28.47;27.57;;;21.30;99.50;;;;;;5092645;28;20494;-68
2022/06/10 02:49:36;;;;;;;30.67;29.47;;;21.30;99.50;;;;;;5092336;28;20526;-68
2022/06/10 02:52:03;;;;;;;28.60;27.50;;;21.30;99.50;;;;;;5092305;28;20571;-68
2022/06/10 02:54:32;;;;;;;30.17;29.10;;;21.30;99.50;;;;;;5077583;28;20482;-68
2022/06/10 02:57:11;;;;;;;31.83;30.53;;;21.30;99.50;;;;;;5071996;28;20499;-68
2022/06/10 03:02:32;;;;;;;31.27;30.10;;;21.30;99.40;;;;;;5071968;28;20598;-68
2022/06/10 03:05:14;;;;;;;31.37;30.27;;;21.20;99.30;;;;;;5089978;28;20480;-68
2022/06/10 03:07:48;;;;;;;30.00;28.90;;;21.30;99.40;;;;;;5071769;28;20553;-68
2022/06/10 03:10:26;;;;;;;32.00;30.80;;;21.30;99.30;;;;;;5071717;28;20854;-68
2022/06/10 03:13:09;;;;;;;29.77;28.77;;;21.30;99.20;;;;;;5072228;28;20562;-68
2022/06/10 03:15:48;;;;;;;31.40;30.00;;;21.30;99.30;;;;;;5092159;28;20447;-68
2022/06/10 03:18:24;;;;;;;29.90;28.83;;;21.30;99.30;;;;;;5092339;28;20482;-70
2022/06/10 03:21:01;;;;;;;31.47;30.40;;;21.20;99.20;;;;;;5091902;28;20846;-67
2022/06/10 03:23:36;;;;;;;31.80;30.60;;;21.30;99.10;;;;;;5086399;28;20497;-68
2022/06/10 03:26:08;;;;;;;30.53;29.43;;;21.30;99.20;;;;;;5071919;28;20451;-69
2022/06/10 03:28:43;;;;;;;31.53;30.23;;;21.30;99.20;;;;;;5071541;28;20474;-68
2022/06/10 03:31:17;;;;;;;30.50;29.40;;;21.30;99.20;;;;;;5071424;28;20864;-67
2022/06/10 03:33:48;;;;;;;27.10;26.20;;;21.30;99.20;;;;;;5077866;28;20450;-67
2022/06/10 03:36:20;;;;;;;29.70;28.60;;;21.30;99.20;;;;;;5091865;28;20478;-67
2022/06/10 03:38:50;;;;;;;29.00;28.00;;;21.30;99.30;;;;;;5091753;28;20549;-67
2022/06/10 03:41:21;;;;;;;32.20;30.80;;;21.30;99.20;;;;;;5091558;28;20532;-67
2022/06/10 03:43:50;;;;;;;28.60;27.50;;;21.20;99.20;;;;;;5083919;28;20518;-67
2022/06/10 03:46:19;;;;;;;29.23;28.07;;;21.20;99.10;;;;;;5071423;28;20471;-66
2022/06/10 03:48:48;;;;;;;30.73;29.63;;;21.20;99.10;;;;;;5071368;28;20875;-67
2022/06/10 03:51:18;;;;;;;29.80;28.80;;;21.20;99.00;;;;;;5071089;28;20525;-67
2022/06/10 03:53:45;;;;;;;29.93;28.83;;;21.20;99.10;;;;;;5078002;28;20500;-67
2022/06/10 03:56:13;;;;;;;29.30;28.27;;;21.20;99.00;;;;;;5091660;28;20477;-67
2022/06/10 03:58:41;;;;;;;32.23;31.13;;;21.20;99.10;;;;;;5091573;28;20466;-67
2022/06/10 04:01:08;;;;;;;32.57;31.37;;;21.20;99.10;;;;;;5091313;28;20617;-67
2022/06/10 04:03:35;;;;;;;32.30;31.20;;;21.20;99.00;;;;;;5085869;28;20474;-67
2022/06/10 04:06:02;;;;;;;32.37;31.17;;;21.20;99.00;;;;;;5079099;28;20521;-67
2022/06/10 04:08:31;;;;;;;32.87;31.77;;;21.20;99.10;;;;;;5091564;28;20501;-67
2022/06/10 04:10:58;;;;;;;34.83;33.63;;;21.20;99.10;;;;;;5091216;28;20461;-67
2022/06/10 04:13:25;;;;;;;36.37;34.97;;;21.20;99.20;;;;;;5080347;28;21082;-67
2022/06/10 04:15:52;;;;;;;34.33;33.13;;;21.20;99.30;;;;;;5071155;28;20527;-67
2022/06/10 04:18:19;;;;;;;35.07;33.87;;;21.20;99.40;;;;;;5071095;28;20562;-67
2022/06/10 04:20:45;;;;;;;35.67;34.37;;;21.20;99.40;;;;;;5070891;28;20535;-67
2022/06/10 04:23:13;;;;;;;34.50;33.17;;;21.20;99.40;;;;;;5079571;28;20474;-67
2022/06/10 04:25:43;;;;;;;34.37;33.17;;;21.20;99.50;;;;;;5091358;28;20499;-67
2022/06/10 04:28:12;;;;;;;35.90;34.43;;;21.20;99.30;;;;;;5091261;28;20557;-67
2022/06/10 04:30:42;;;;;;;35.83;34.53;;;21.20;99.50;;;;;;5091209;28;20442;-67
2022/06/10 04:33:09;;;;;;;36.60;35.20;;;21.20;99.90;;;;;;5083154;28;20475;-67
2022/06/10 04:35:37;;;;;;;34.63;33.13;;;21.30;99.90;;;;;;5070956;28;20957;-66
2022/06/10 04:38:05;;;;;;;34.27;32.50;;;21.30;99.90;;;;;;5070910;28;20455;-67
2022/06/10 04:40:34;;;;;;;35.17;32.97;;;21.30;99.90;;;;;;5070616;28;20876;-67
2022/06/10 04:43:03;;;;;;;33.80;32.00;;;21.30;99.90;;;;;;5077309;28;20529;-67
2022/06/10 04:45:34;;;;;;;33.00;31.20;;;21.30;99.90;;;;;;5090980;28;20536;-67
2022/06/10 04:48:02;;;;;;;34.07;32.23;;;21.30;99.90;;;;;;5074381;28;20495;-66
2022/06/10 04:50:30;;;;;;;35.27;33.40;;;21.30;99.90;;;;;;5074158;28;20439;-67
2022/06/10 04:52:58;;;;;;;34.70;32.80;;;21.30;99.90;;;;;;5074407;28;20942;-67
2022/06/10 04:55:27;;;;;;;33.23;31.57;;;21.30;99.90;;;;;;5074242;28;20537;-67
2022/06/10 04:57:55;;;;;;;36.77;35.03;;;21.30;99.90;;;;;;5072953;28;20467;-67
2022/06/10 05:00:25;;;;;;;34.90;33.23;;;21.30;99.90;;;;;;5074206;28;20509;-67
2022/06/10 05:02:53;;;;;;;35.90;34.10;;;21.30;99.90;;;;;;5074348;28;20518;-66
2022/06/10 05:05:20;;;;;;;35.07;33.37;;;21.40;99.90;;;;;;5074197;28;20989;-67
2022/06/10 05:07:47;;;;;;;36.13;34.53;;;21.30;99.90;;;;;;5074046;28;20506;-67
2022/06/10 05:10:15;;;;;;;34.83;33.13;;;21.40;99.90;;;;;;5073915;28;20489;-67
2022/06/10 05:12:44;;;;;;;32.23;30.93;;;21.30;99.90;;;;;;5073958;28;20831;-67
2022/06/10 05:15:12;;;;;;;34.40;33.00;;;21.40;99.90;;;;;;5073990;28;20846;-67
2022/06/10 05:17:40;;;;;;;33.63;32.10;;;21.40;99.90;;;;;;5073680;28;20562;-67
2022/06/10 05:20:08;;;;;;;33.80;32.30;;;21.40;99.90;;;;;;5073719;28;20479;-67
2022/06/10 05:22:35;;;;;;;34.17;32.20;;;21.40;99.90;;;;;;5073960;28;20439;-67
2022/06/10 05:25:02;;;;;;;33.80;32.20;;;21.40;99.90;;;;;;5073762;28;20538;-67
2022/06/10 05:27:29;;;;;;;32.10;30.80;;;21.40;99.90;;;;;;5073633;28;20463;-67
2022/06/10 05:29:56;;;;;;;35.40;33.77;;;21.40;99.90;;;;;;5073612;28;20481;-67
2022/06/10 05:32:23;;;;;;;33.30;31.90;;;21.40;99.90;;;;;;5073434;28;20475;-67
2022/06/10 05:34:51;;;;;;;30.53;29.30;;;21.40;99.90;;;;;;5073610;28;20443;-67
2022/06/10 05:37:20;;;;;;;32.30;31.10;;;21.40;99.90;;;;;;5073579;28;20483;-67
2022/06/10 05:39:47;;;;;;;31.13;29.83;;;21.40;99.90;;;;;;5073320;28;20486;-67
2022/06/10 05:42:15;;;;;;;31.90;30.70;;;21.40;99.90;;;;;;5073415;28;20471;-67
2022/06/10 05:44:44;;;;;;;34.07;32.67;;;21.40;99.90;;;;;;5073264;28;20535;-67
2022/06/10 05:47:14;;;;;;;32.57;31.03;;;21.40;99.90;;;;;;5073559;28;20472;-67
2022/06/10 05:49:50;;;;;;;33.60;32.30;;;21.40;99.90;;;;;;5073079;28;20523;-66
2022/06/10 05:52:21;;;;;;;32.47;31.07;;;21.40;99.90;;;;;;5073138;28;20475;-67
2022/06/10 05:54:49;;;;;;;32.23;30.93;;;21.40;99.90;;;;;;5073191;28;20482;-67
2022/06/10 05:57:18;;;;;;;32.40;31.00;;;21.40;99.90;;;;;;5072087;28;20495;-66
2022/06/10 05:59:47;;;;;;;33.33;32.03;;;21.40;99.90;;;;;;5072859;28;20524;-67
2022/06/10 06:02:14;;;;;;;32.87;31.67;;;21.40;99.90;;;;;;5073047;28;21037;-67
2022/06/10 06:04:42;;;;;;;31.80;30.60;;;21.40;99.90;;;;;;5073007;28;20478;-67
2022/06/10 06:07:09;;;;;;;33.47;31.97;;;21.40;99.90;;;;;;5072950;28;20845;-67
2022/06/10 06:09:37;;;;;;;33.87;32.47;;;21.40;99.90;;;;;;5072762;28;20889;-67
2022/06/10 06:12:05;;;;;;;32.90;31.70;;;21.40;99.90;;;;;;5072622;28;20475;-67
2022/06/10 06:14:32;;;;;;;33.27;31.67;;;21.40;99.90;;;;;;5072743;28;20968;-67
2022/06/10 06:17:01;;;;;;;32.90;31.70;;;21.40;99.90;;;;;;5072614;28;20887;-67
2022/06/10 06:19:30;;;;;;;32.37;31.17;;;21.40;99.90;;;;;;5072690;28;20497;-67
2022/06/10 06:21:57;;;;;;;31.27;30.03;;;21.40;99.90;;;;;;5072692;28;20479;-67
2022/06/10 06:24:25;;;;;;;32.00;30.90;;;21.40;99.90;;;;;;5072645;28;20885;-67
2022/06/10 06:26:53;;;;;;;32.73;31.43;;;21.40;99.90;;;;;;5072561;28;20526;-67
2022/06/10 06:29:23;;;;;;;32.60;31.40;;;21.40;99.90;;;;;;5072419;28;20534;-67
2022/06/10 06:31:52;;;;;;;33.67;32.17;;;21.40;99.90;;;;;;5072409;28;20526;-67
2022/06/10 06:34:20;;;;;;;33.23;31.83;;;21.40;99.90;;;;;;5072382;28;20505;-67
2022/06/10 06:36:49;;;;;;;29.93;28.63;;;21.40;99.90;;;;;;5072228;28;20451;-67
2022/06/10 06:39:18;;;;;;;30.93;29.73;;;21.40;99.90;;;;;;5072340;28;20487;-67
2022/06/10 06:41:45;;;;;;;31.00;29.80;;;21.40;99.90;;;;;;5072178;28;20530;-67
2022/06/10 06:44:15;;;;;;;31.03;29.53;;;21.40;99.90;;;;;;5072084;28;20524;-67
2022/06/10 06:46:43;;;;;;;30.90;29.70;;;21.40;99.90;;;;;;5072013;28;20526;-67
2022/06/10 06:49:14;;;;;;;31.50;30.20;;;21.40;99.90;;;;;;5072248;28;20883;-67
2022/06/10 06:51:41;;;;;;;31.87;30.60;;;21.50;99.90;;;;;;5071950;28;20448;-67
2022/06/10 06:54:09;;;;;;;31.73;30.53;;;21.40;99.90;;;;;;5072067;28;20620;-67
2022/06/10 06:56:37;;;;;;;31.00;29.90;;;21.50;99.90;;;;;;5072064;28;20520;-67
2022/06/10 06:59:04;;;;;;;31.03;29.83;;;21.50;99.90;;;;;;5072131;28;20542;-67
2022/06/10 07:01:32;;;;;;;30.77;29.67;;;21.50;99.90;;;;;;5071771;28;21009;-67
2022/06/10 07:03:59;;;;;;;30.50;29.23;;;21.50;99.90;;;;;;5072019;28;20815;-67
2022/06/10 07:06:26;;;;;;;29.80;28.70;;;21.40;99.90;;;;;;5071895;28;20534;-67
2022/06/10 07:08:53;;;;;;;29.37;28.27;;;21.50;99.90;;;;;;5071625;28;20506;-67
2022/06/10 07:11:20;;;;;;;33.10;31.80;;;21.50;99.90;;;;;;5071629;28;20450;-67
2022/06/10 07:13:47;;;;;;;33.40;32.20;;;21.50;99.90;;;;;;5071740;28;20571;-67
2022/06/10 07:16:14;;;;;;;32.13;31.03;;;21.50;99.90;;;;;;5071790;28;20451;-67
2022/06/10 07:18:42;;;;;;;34.03;32.80;;;21.50;99.90;;;;;;5071542;28;20831;-67
2022/06/10 07:21:09;;;;;;;33.40;32.20;;;21.50;99.90;;;;;;5071482;28;20479;-67
2022/06/10 07:23:36;;;;;;;34.53;33.13;;;21.50;99.90;;;;;;5071593;28;20534;-68
2022/06/10 07:26:03;;;;;;;34.83;33.53;;;21.50;99.90;;;;;;5071577;28;20877;-67
2022/06/10 07:28:30;;;;;;;34.50;33.20;;;21.50;99.90;;;;;;5071578;28;20887;-68
2022/06/10 07:30:58;;;;;;;33.60;32.30;;;21.50;99.90;;;;;;5071336;28;20459;-67
2022/06/10 07:33:25;;;;;;;32.83;31.73;;;21.50;99.90;;;;;;5071565;28;20486;-67
2022/06/10 07:35:54;;;;;;;31.33;30.20;;;21.50;99.80;;;;;;5071558;28;20466;-68
2022/06/10 07:38:20;;;;;;;32.87;31.57;;;21.50;99.90;;;;;;5071455;28;20459;-67
2022/06/10 07:43:35;;;;;;;33.43;32.30;;;21.50;99.80;;;;;;5071884;28;20418;-67
2022/06/10 07:46:03;;;;;;;33.70;32.30;;;21.50;99.70;;;;;;5071748;28;20443;-67
2022/06/10 07:48:31;;;;;;;32.17;30.97;;;21.50;99.70;;;;;;5071599;28;20551;-67
2022/06/10 07:50:59;;;;;;;31.70;30.50;;;21.50;99.70;;;;;;5071247;28;20958;-66
2022/06/10 07:53:30;;;;;;;32.03;30.73;;;21.50;99.90;;;;;;5071344;28;20518;-67
2022/06/10 07:55:57;;;;;;;32.70;31.40;;;21.50;99.80;;;;;;5071309;28;20440;-67
2022/06/10 07:58:25;;;;;;;32.63;31.43;;;21.60;99.60;;;;;;5071271;28;20506;-67
2022/06/10 08:00:52;;;;;;;32.10;30.90;;;21.50;99.50;;;;;;5071235;28;20449;-67
2022/06/10 08:03:19;;;;;;;33.70;32.17;;;21.60;99.50;;;;;;5071314;28;20923;-67
2022/06/10 08:05:46;;;;;;;33.80;32.30;;;21.50;99.50;;;;;;5071291;28;20530;-67
2022/06/10 08:08:16;;;;;;;32.57;31.37;;;21.50;99.60;;;;;;5071200;28;20555;-67
2022/06/10 08:10:43;;;;;;;34.10;32.77;;;21.50;99.40;;;;;;5070933;28;20506;-67
2022/06/10 08:13:10;;;;;;;33.40;32.13;;;21.60;99.40;;;;;;5071209;28;20511;-67
2022/06/10 08:15:38;;;;;;;33.30;31.80;;;21.60;99.50;;;;;;5071120;28;20581;-67
2022/06/10 08:18:06;;;;;;;32.47;31.30;;;21.50;99.30;;;;;;5071078;28;20989;-67
2022/06/10 08:23:23;;;;;;;31.50;30.37;;;21.50;99.30;;;;;;5075383;28;20427;-67
2022/06/10 08:25:50;;;;;;;31.43;30.20;;;21.50;99.20;;;;;;5074973;28;20486;-67
2022/06/10 08:28:18;;;;;;;31.93;30.67;;;21.60;99.40;;;;;;5074908;28;21020;-66
2022/06/10 08:30:45;;;;;;;32.27;31.07;;;21.50;99.10;;;;;;5074692;28;20526;-67
2022/06/10 08:33:12;;;;;;;32.30;30.80;;;21.50;99.30;;;;;;5074780;28;20537;-67
2022/06/10 08:35:40;;;;;;;32.40;31.10;;;21.60;98.90;;;;;;5074820;28;20811;-67
2022/06/10 08:38:12;;;;;;;33.80;32.50;;;21.60;99.40;;;;;;5074534;28;20501;-67
2022/06/10 08:40:50;;;;;;;33.30;32.00;;;21.60;98.80;;;;;;5074452;28;20981;-66
2022/06/10 08:43:34;;;;;;;32.27;31.07;;;21.60;98.80;;;;;;5074745;28;20435;-67
2022/06/10 08:46:10;;;;;;;33.80;32.53;;;21.60;98.70;;;;;;5074657;28;20530;-67
2022/06/10 08:48:55;;;;;;;32.57;31.30;;;21.60;98.70;;;;;;5074532;28;20462;-67
2022/06/10 08:51:29;;;;;;;32.47;31.23;;;21.60;98.60;;;;;;5074288;28;20871;-67
2022/06/10 08:54:08;;;;;;;33.33;31.93;;;21.60;98.70;;;;;;5074383;28;20585;-67
2022/06/10 08:56:40;;;;;;;33.90;32.20;;;21.60;98.60;;;;;;5074342;28;20855;-67
2022/06/10 08:59:19;;;;;;;32.63;31.33;;;21.60;98.60;;;;;;5074235;28;20546;-67
2022/06/10 09:01:51;;;;;;;32.73;31.43;;;21.60;98.50;;;;;;5074216;28;20497;-67
2022/06/10 09:04:30;;;;;;;33.60;32.20;;;21.60;98.50;;;;;;5074506;28;20811;-67
2022/06/10 09:07:01;;;;;;;33.90;32.37;;;21.60;98.40;;;;;;5074100;28;20443;-67
2022/06/10 09:09:32;;;;;;;32.67;31.27;;;21.60;98.40;;;;;;5073987;28;20528;-67
2022/06/10 09:12:09;;;;;;;32.30;30.97;;;21.60;98.40;;;;;;5074044;28;20446;-67
2022/06/10 09:14:36;;;;;;;32.23;30.97;;;21.60;98.40;;;;;;5074100;28;20487;-67
2022/06/10 09:17:07;;;;;;;33.33;32.03;;;21.60;98.90;;;;;;5099682;22;20481;-66
2022/06/10 09:19:41;;;;;;;34.13;32.83;;;21.60;98.50;;;;;;5098695;28;20534;-66
2022/06/10 09:22:14;;;;;;;34.47;33.07;;;21.60;98.50;;;;;;5114596;28;20476;-67
2022/06/10 09:24:44;;;;;;;32.57;31.27;;;21.60;98.40;;;;;;5114487;28;20980;-66
2022/06/10 09:27:20;;;;;;;33.80;32.40;;;21.60;98.60;;;;;;5114493;28;20453;-67
2022/06/10 09:29:48;;;;;;;32.90;31.70;;;21.60;98.50;;;;;;5114426;28;20805;-66
2022/06/10 09:32:21;;;;;;;34.07;32.77;;;21.60;98.50;;;;;;5114361;28;20441;-66
2022/06/10 09:35:03;;;;;;;31.97;30.53;;;21.60;98.40;;;;;;5114342;28;20484;-66
2022/06/10 09:37:39;;;;;;;33.27;32.07;;;21.70;98.40;;;;;;5114205;28;20556;-66
2022/06/10 09:43:26;;;;;;;33.40;32.20;;;21.70;98.40;;;;;;5114600;28;20547;-66
2022/06/10 09:46:04;;;;;;;33.23;31.77;;;21.70;98.50;;;;;;5110737;28;20536;-66
2022/06/10 09:48:46;;;;;;;32.60;31.40;;;21.60;98.50;;;;;;5114244;28;20485;-66
2022/06/10 09:51:21;;;;;;;32.50;31.20;;;21.70;98.50;;;;;;5114060;28;20456;-66
2022/06/10 09:54:07;;;;;;;32.87;31.60;;;21.70;98.40;;;;;;5113948;28;20476;-66
2022/06/10 09:57:01;;;;;;;32.17;30.97;;;21.70;98.30;;;;;;5114068;28;20858;-66
2022/06/10 09:59:37;;;;;;;32.37;31.17;;;21.70;98.30;;;;;;5113876;28;20506;-66
2022/06/10 10:02:19;;;;;;;31.80;30.60;;;21.70;98.30;;;;;;5113730;28;20851;-66
2022/06/10 10:05:07;;;;;;;32.93;31.63;;;21.70;98.30;;;;;;5113712;28;20857;-66
2022/06/10 10:07:41;;;;;;;32.50;31.30;;;21.70;98.30;;;;;;5113667;28;20832;-66
2022/06/10 10:10:18;;;;;;;32.93;31.73;;;21.70;98.20;;;;;;5113391;28;20498;-66
2022/06/10 10:12:57;;;;;;;34.10;32.80;;;21.80;98.30;;;;;;5113679;28;20519;-65
2022/06/10 10:15:34;;;;;;;33.20;32.00;;;21.80;98.70;;;;;;5113737;28;20512;-65
2022/06/10 10:18:33;;;;;;;33.30;32.10;;;21.80;98.50;;;;;;5113436;28;20564;-66
2022/06/10 10:21:10;;;;;;;33.80;32.50;;;21.80;98.50;;;;;;5113233;28;20445;-66
2022/06/10 10:23:40;;;;;;;32.93;31.73;;;21.70;98.40;;;;;;5113354;28;20524;-66
2022/06/10 10:26:19;;;;;;;34.13;32.83;;;21.80;98.40;;;;;;5113251;28;20465;-66
2022/06/10 10:28:48;;;;;;;34.30;33.00;;;21.80;98.40;;;;;;5113242;28;20956;-66
2022/06/10 10:31:21;;;;;;;34.23;32.93;;;21.80;98.30;;;;;;5113072;28;20880;-66
2022/06/10 10:33:49;;;;;;;33.00;31.70;;;21.80;98.30;;;;;;5113378;28;20513;-66
2022/06/10 10:36:31;;;;;;;34.90;33.60;;;21.80;98.40;;;;;;5113188;28;20529;-66
2022/06/10 10:38:59;;;;;;;33.30;32.00;;;21.80;98.30;;;;;;5112959;28;20828;-66
2022/06/10 10:41:35;;;;;;;34.27;33.07;;;21.90;98.20;;;;;;5112825;28;20442;-66
2022/06/10 10:44:06;;;;;;;33.87;32.57;;;21.80;98.10;;;;;;5112739;28;20456;-66
2022/06/10 10:46:39;;;;;;;34.03;32.83;;;21.90;98.10;;;;;;5113072;28;20536;-66
2022/06/10 10:49:21;;;;;;;34.40;33.00;;;21.90;98.00;;;;;;5112726;28;20462;-65
2022/06/10 10:51:50;;;;;;;35.90;34.50;;;21.90;98.00;;;;;;5112546;28;20846;-66
2022/06/10 10:54:23;;;;;;;34.77;33.37;;;21.90;98.30;;;;;;5112684;28;20481;-66
2022/06/10 10:56:51;;;;;;;35.67;34.37;;;21.90;97.90;;;;;;5112772;28;20465;-67
2022/06/10 10:59:33;;;;;;;34.90;33.50;;;21.90;97.90;;;;;;5112629;28;20465;-66
2022/06/10 11:02:01;;;;;;;35.90;34.60;;;21.90;97.90;;;;;;5112704;28;20467;-66
2022/06/10 11:04:32;;;;;;;37.20;35.80;;;21.90;97.90;;;;;;5112688;28;20446;-66
2022/06/10 11:07:02;;;;;;;34.40;33.00;;;21.90;97.80;;;;;;5112559;28;20527;-66
2022/06/10 11:09:29;;;;;;;33.70;32.40;;;21.90;97.80;;;;;;5112282;28;20850;-66
2022/06/10 11:11:58;;;;;;;34.77;33.47;;;22.00;97.70;;;;;;5112538;28;20525;-66
2022/06/10 11:14:28;;;;;;;33.53;32.27;;;22.00;97.70;;;;;;5112533;28;20571;-65
2022/06/10 11:17:09;;;;;;;33.90;32.70;;;22.00;97.70;;;;;;5112406;28;20448;-66
2022/06/10 11:19:46;;;;;;;34.83;33.43;;;21.90;97.70;;;;;;5112301;28;20444;-65
2022/06/10 11:22:27;;;;;;;36.17;34.87;;;22.00;97.70;;;;;;5112210;28;20995;-66
2022/06/10 11:25:15;;;;;;;35.60;34.27;;;22.00;97.70;;;;;;5112520;28;20524;-66
2022/06/10 11:27:58;;;;;;;34.27;32.97;;;22.00;97.70;;;;;;5112224;28;20454;-66
2022/06/10 11:30:33;;;;;;;33.90;32.70;;;22.00;97.70;;;;;;5111945;28;20448;-66
2022/06/10 11:33:05;;;;;;;35.77;34.47;;;22.00;97.70;;;;;;5112267;28;20464;-66
2022/06/10 11:35:35;;;;;;;34.23;33.03;;;22.00;97.70;;;;;;5112057;28;20512;-66
2022/06/10 11:38:06;;;;;;;34.00;32.80;;;22.00;97.70;;;;;;5112119;28;20493;-66
2022/06/10 11:40:40;;;;;;;32.57;31.37;;;22.00;97.70;;;;;;5111940;28;20970;-65
2022/06/10 11:43:16;;;;;;;32.97;31.77;;;22.00;97.70;;;;;;5112110;28;20526;-66
2022/06/10 11:45:48;;;;;;;33.60;32.27;;;22.00;97.60;;;;;;5112239;28;21011;-66
2022/06/10 11:48:27;;;;;;;33.30;32.10;;;22.00;97.60;;;;;;5111983;28;20469;-65
2022/06/10 11:50:59;;;;;;;34.03;32.83;;;22.00;97.60;;;;;;5111762;28;20485;-65
2022/06/10 11:53:39;;;;;;;35.83;34.53;;;22.10;97.70;;;;;;5112023;28;20469;-66
2022/06/10 12:01:51;;;;;;;35.60;34.23;;;22.10;97.60;;;;;;5116399;28;20959;-66
2022/06/10 12:04:25;;;;;;;34.77;33.53;;;22.10;97.60;;;;;;5116181;28;20528;-67
2022/06/10 12:06:56;;;;;;;34.90;33.60;;;22.10;97.60;;;;;;5116088;28;20529;-66
2022/06/10 12:09:28;;;;;;;35.33;33.93;;;22.10;97.60;;;;;;5116396;28;20787;-66
2022/06/10 12:11:59;;;;;;;35.67;34.37;;;22.10;97.60;;;;;;5115897;28;20481;-66
2022/06/10 12:14:32;;;;;;;33.47;32.17;;;22.10;97.50;;;;;;5116115;28;20478;-65
2022/06/10 12:17:04;;;;;;;34.90;33.50;;;22.10;97.50;;;;;;5115808;28;20875;-66
2022/06/10 12:19:38;;;;;;;34.97;33.43;;;22.20;97.60;;;;;;5115807;28;20854;-66
2022/06/10 12:22:05;;;;;;;34.00;32.70;;;22.10;97.50;;;;;;5115696;28;20501;-66
2022/06/10 12:24:32;;;;;;;35.90;34.60;;;22.20;97.50;;;;;;5115625;28;20928;-67
2022/06/10 12:27:02;;;;;;;38.00;36.30;;;22.20;97.50;;;;;;5115602;28;20528;-66
2022/06/10 12:29:37;;;;;;;35.87;34.47;;;22.20;97.50;;;;;;5115497;28;20469;-65
2022/06/10 12:32:14;;;;;;;36.70;35.40;;;22.20;97.60;;;;;;5115477;28;20455;-66
2022/06/10 12:34:54;;;;;;;36.67;35.37;;;22.20;97.50;;;;;;5115348;28;20966;-66
2022/06/10 12:37:28;;;;;;;36.13;34.63;;;22.20;97.50;;;;;;5115437;28;20873;-66
2022/06/10 12:40:02;;;;;;;37.03;35.63;;;22.20;97.50;;;;;;5115656;28;20438;-66
2022/06/10 12:42:40;;;;;;;36.40;35.10;;;22.20;97.80;;;;;;5115265;28;20452;-66
2022/06/10 12:45:23;;;;;;;37.17;35.87;;;22.20;97.90;;;;;;5115307;28;20546;-65
2022/06/10 12:47:56;;;;;;;36.00;34.70;;;22.20;97.80;;;;;;5115216;28;20823;-66
2022/06/10 12:50:28;;;;;;;35.53;33.93;;;22.30;97.80;;;;;;5114876;28;20442;-66
2022/06/10 12:53:21;;;;;;;36.03;34.53;;;22.30;97.90;;;;;;5115203;28;20452;-66
2022/06/10 12:55:51;;;;;;;36.00;34.70;;;22.30;98.00;;;;;;5115059;28;20519;-66
2022/06/10 12:58:41;;;;;;;34.80;33.50;;;22.30;98.20;;;;;;5115117;28;20465;-66
2022/06/10 13:01:18;;;;;;;37.63;36.13;;;22.30;98.10;;;;;;5114742;28;20528;-66
2022/06/10 13:03:46;;;;;;;38.70;37.10;;;22.30;98.00;;;;;;5115058;28;20494;-66
2022/06/10 13:06:56;;;;;;;37.07;35.67;;;22.30;98.00;;;;;;5114570;28;20437;-67
2022/06/10 13:09:30;;;;;;;38.40;37.00;;;22.30;98.10;;;;;;5114695;28;20461;-66